Horgen, Switzerland
Current Conditions -  °F | °C
As of 11:50 PM on Thursday 20 Nov 2014 (Local Time) from LSMD Reporting Station
Overcast Overcast  
Wind Chill: 39°   Ceiling: 15000
Heat Index: 39°   Visibility: 6mi
Dew Point: 37°   Wind: 0mph
Humidity: 93%   Direction: NA
Pressure: 30.24"   Gusts: NA
Location:  47.27°N, 8.6°E
Report Text: LSMD 202250Z AUTO 00000KT 9999NDV OVC150 04/03 Q1024 RMK WHT
Loading
Personal Weather Stations






























Interactive Weather Map New forecast layout! Learn more

10-Day Weather Forecast

Advertisements
Track Severe Weather on mobile